TAI383 MSLP-SKBO
Flight info
| Callsign | TAI383 |
|---|---|
| Flight time | 2h 25m |
| Altitude | 35000 |
| Route | ALTEG2W ALTEG UG436 LIB UG440 ISEBA UL423 ILTUR UQ122 TIRTO TIRTO5W |
| Aircraft | A320/M-SDE3FGHIRWY/LB1 |
Departure
| Time | 2026-04-24 23:00 |
|---|---|
| Airport | El Salvador International Airport Saint Óscar Arnulfo Romero y Galdámez (MSLP) |
Arrival
| Time | 2026-04-25 01:25 |
|---|---|
| Airport | El Dorado International Airport (SKBO) |
| Time | Latitude | Longitude | Altitude | Speed | Heading |
|---|---|---|---|---|---|
| 2026-04-24 22:40 | 13.44502 | -89.05453 | 92 ft | 0 kts | 341° |
| 2026-04-24 22:52 | 13.44500 | -89.05452 | 92 ft | 3 kts | 341° |
| 2026-04-24 22:53 | 13.44474 | -89.05443 | 92 ft | 4 kts | 341° |
| 2026-04-24 22:53 | 13.44449 | -89.05434 | 91 ft | 4 kts | 348° |
| 2026-04-24 22:53 | 13.44426 | -89.05436 | 92 ft | 4 kts | 41° |
| 2026-04-24 22:53 | 13.44415 | -89.05450 | 90 ft | 0 kts | 69° |
| 2026-04-24 22:56 | 13.44428 | -89.05399 | 91 ft | 13 kts | 100° |
| 2026-04-24 22:56 | 13.44386 | -89.05334 | 92 ft | 14 kts | 78° |
| 2026-04-24 22:56 | 13.44410 | -89.05242 | 92 ft | 13 kts | 77° |
| 2026-04-24 22:56 | 13.44432 | -89.05158 | 93 ft | 15 kts | 72° |
| 2026-04-24 22:57 | 13.44482 | -89.05019 | 92 ft | 27 kts | 70° |
| 2026-04-24 22:57 | 13.44544 | -89.04839 | 92 ft | 25 kts | 72° |
| 2026-04-24 22:57 | 13.44604 | -89.04673 | 93 ft | 24 kts | 69° |
| 2026-04-24 22:57 | 13.44661 | -89.04518 | 95 ft | 17 kts | 71° |
| 2026-04-24 22:58 | 13.44691 | -89.04418 | 95 ft | 13 kts | 73° |
| 2026-04-24 22:58 | 13.44716 | -89.04334 | 93 ft | 12 kts | 73° |
| 2026-04-24 22:58 | 13.44711 | -89.04264 | 94 ft | 12 kts | 127° |
| 2026-04-24 22:58 | 13.44637 | -89.04215 | 100 ft | 11 kts | 153° |
| 2026-04-24 22:59 | 13.44574 | -89.04223 | 100 ft | 13 kts | 233° |
| 2026-04-24 22:59 | 13.44479 | -89.04485 | 99 ft | 73 kts | 249° |
| 2026-04-24 22:59 | 13.43872 | -89.06195 | 201 ft | 164 kts | 249° |
| 2026-04-24 23:00 | 13.43492 | -89.07300 | 838 ft | 164 kts | 248° |
| 2026-04-24 23:00 | 13.43098 | -89.08406 | 1392 ft | 170 kts | 249° |
| 2026-04-24 23:00 | 13.42657 | -89.09612 | 1633 ft | 192 kts | 245° |
| 2026-04-24 23:00 | 13.41736 | -89.10688 | 1850 ft | 216 kts | 209° |
| 2026-04-24 23:01 | 13.40213 | -89.10956 | 2144 ft | 244 kts | 171° |
| 2026-04-24 23:01 | 13.38641 | -89.10129 | 2589 ft | 266 kts | 141° |
| 2026-04-24 23:01 | 13.37335 | -89.08702 | 3300 ft | 275 kts | 130° |
| 2026-04-24 23:01 | 13.36188 | -89.07106 | 4058 ft | 280 kts | 126° |
| 2026-04-24 23:02 | 13.35083 | -89.05471 | 4811 ft | 285 kts | 126° |
| 2026-04-24 23:02 | 13.33937 | -89.03801 | 5581 ft | 288 kts | 127° |
| 2026-04-24 23:02 | 13.32744 | -89.02129 | 6339 ft | 291 kts | 128° |
| 2026-04-24 23:02 | 13.31514 | -89.00464 | 7081 ft | 293 kts | 129° |
| 2026-04-24 23:03 | 13.30258 | -88.98803 | 7837 ft | 295 kts | 128° |
| 2026-04-24 23:03 | 13.28981 | -88.97136 | 8565 ft | 299 kts | 128° |
| 2026-04-24 23:03 | 13.27688 | -88.95461 | 9317 ft | 301 kts | 128° |
| 2026-04-24 23:03 | 13.26404 | -88.93807 | 10034 ft | 302 kts | 128° |
| 2026-04-24 23:04 | 13.25057 | -88.92070 | 10297 ft | 322 kts | 128° |
| 2026-04-24 23:04 | 13.23615 | -88.90208 | 10433 ft | 344 kts | 127° |
| 2026-04-24 23:04 | 13.22097 | -88.88246 | 10819 ft | 355 kts | 127° |
| 2026-04-24 23:04 | 13.20545 | -88.86243 | 11368 ft | 361 kts | 127° |
| 2026-04-24 23:05 | 13.18976 | -88.84217 | 12002 ft | 364 kts | 127° |
| 2026-04-24 23:05 | 13.17392 | -88.82172 | 12620 ft | 368 kts | 127° |
| 2026-04-24 23:05 | 13.15789 | -88.80102 | 13165 ft | 373 kts | 127° |
| 2026-04-24 23:05 | 13.14167 | -88.78007 | 13743 ft | 376 kts | 127° |
| 2026-04-24 23:06 | 13.12535 | -88.75902 | 14298 ft | 378 kts | 127° |
| 2026-04-24 23:06 | 13.10892 | -88.73781 | 14813 ft | 381 kts | 127° |
| 2026-04-24 23:06 | 13.09237 | -88.71643 | 15359 ft | 383 kts | 128° |
| 2026-04-24 23:06 | 13.07571 | -88.69495 | 15860 ft | 387 kts | 128° |
| 2026-04-24 23:07 | 13.05887 | -88.67325 | 16332 ft | 391 kts | 128° |
| 2026-04-24 23:07 | 13.04191 | -88.65136 | 16902 ft | 393 kts | 128° |
| 2026-04-24 23:07 | 13.02484 | -88.62934 | 17410 ft | 396 kts | 128° |
| 2026-04-24 23:07 | 13.00767 | -88.60720 | 17929 ft | 398 kts | 128° |
| 2026-04-24 23:08 | 12.99039 | -88.58490 | 18389 ft | 401 kts | 128° |
| 2026-04-24 23:08 | 12.97294 | -88.56236 | 18753 ft | 406 kts | 128° |
| 2026-04-24 23:08 | 12.95531 | -88.53964 | 19164 ft | 409 kts | 128° |
| 2026-04-24 23:08 | 12.93756 | -88.51679 | 19623 ft | 410 kts | 128° |
| 2026-04-24 23:09 | 12.91972 | -88.49380 | 20054 ft | 413 kts | 127° |
| 2026-04-24 23:09 | 12.90219 | -88.47120 | 20460 ft | 416 kts | 127° |
| 2026-04-24 23:09 | 12.88414 | -88.44797 | 20873 ft | 419 kts | 127° |
| 2026-04-24 23:09 | 12.86590 | -88.42451 | 21286 ft | 422 kts | 127° |
| 2026-04-24 23:10 | 12.84776 | -88.40123 | 21692 ft | 425 kts | 127° |
| 2026-04-24 23:10 | 12.82922 | -88.37744 | 22079 ft | 428 kts | 127° |
| 2026-04-24 23:10 | 12.81057 | -88.35351 | 22464 ft | 431 kts | 127° |
| 2026-04-24 23:10 | 12.79179 | -88.32943 | 22851 ft | 434 kts | 127° |
| 2026-04-24 23:11 | 12.77289 | -88.30518 | 23216 ft | 437 kts | 127° |
| 2026-04-24 23:11 | 12.75392 | -88.28080 | 23564 ft | 439 kts | 126° |
| 2026-04-24 23:11 | 12.73481 | -88.25623 | 23880 ft | 441 kts | 126° |
| 2026-04-24 23:11 | 12.71570 | -88.23162 | 24186 ft | 443 kts | 127° |
| 2026-04-24 23:12 | 12.69646 | -88.20686 | 24485 ft | 445 kts | 127° |
| 2026-04-24 23:12 | 12.67711 | -88.18201 | 24783 ft | 447 kts | 127° |
| 2026-04-24 23:12 | 12.65765 | -88.15710 | 25073 ft | 449 kts | 127° |
| 2026-04-24 23:12 | 12.63812 | -88.13207 | 25359 ft | 451 kts | 127° |
| 2026-04-24 23:13 | 12.61846 | -88.10694 | 25640 ft | 453 kts | 127° |
| 2026-04-24 23:13 | 12.59869 | -88.08167 | 25916 ft | 455 kts | 127° |
| 2026-04-24 23:13 | 12.57890 | -88.05627 | 26182 ft | 457 kts | 127° |
| 2026-04-24 23:13 | 12.55903 | -88.03076 | 26455 ft | 459 kts | 128° |
| 2026-04-24 23:14 | 12.53905 | -88.00515 | 26729 ft | 461 kts | 128° |
| 2026-04-24 23:14 | 12.51898 | -87.97947 | 26989 ft | 463 kts | 128° |
| 2026-04-24 23:14 | 12.49877 | -87.95366 | 27250 ft | 465 kts | 128° |
| 2026-04-24 23:14 | 12.47849 | -87.92779 | 27507 ft | 467 kts | 128° |
| 2026-04-24 23:15 | 12.45817 | -87.90177 | 27765 ft | 469 kts | 128° |
| 2026-04-24 23:15 | 12.43775 | -87.87563 | 28019 ft | 471 kts | 128° |
| 2026-04-24 23:15 | 12.42417 | -87.85826 | 28175 ft | 472 kts | 128° |
| 2026-04-24 23:15 | 12.39666 | -87.82309 | 28490 ft | 474 kts | 128° |
| 2026-04-24 23:16 | 12.37626 | -87.79702 | 28692 ft | 477 kts | 129° |
| 2026-04-24 23:16 | 12.35546 | -87.77045 | 28902 ft | 479 kts | 129° |
| 2026-04-24 23:16 | 12.33458 | -87.74380 | 29116 ft | 481 kts | 129° |
| 2026-04-24 23:16 | 12.31361 | -87.71703 | 29325 ft | 483 kts | 129° |
| 2026-04-24 23:17 | 12.29941 | -87.69891 | 29466 ft | 484 kts | 129° |
| 2026-04-24 23:17 | 12.27831 | -87.67199 | 29657 ft | 486 kts | 129° |
| 2026-04-24 23:17 | 12.25710 | -87.64496 | 29851 ft | 488 kts | 129° |
| 2026-04-24 23:17 | 12.23584 | -87.61785 | 30028 ft | 490 kts | 129° |
| 2026-04-24 23:18 | 12.21450 | -87.59066 | 30193 ft | 491 kts | 129° |
| 2026-04-24 23:18 | 12.19307 | -87.56337 | 30357 ft | 492 kts | 129° |
| 2026-04-24 23:18 | 12.17166 | -87.53612 | 30592 ft | 491 kts | 129° |
| 2026-04-24 23:18 | 12.15027 | -87.50887 | 30835 ft | 491 kts | 129° |
| 2026-04-24 23:19 | 12.12896 | -87.48168 | 31074 ft | 490 kts | 129° |
| 2026-04-24 23:19 | 12.10768 | -87.45453 | 31314 ft | 489 kts | 130° |
| 2026-04-24 23:19 | 12.08636 | -87.42738 | 31556 ft | 489 kts | 130° |
| 2026-04-24 23:19 | 12.06510 | -87.40036 | 31803 ft | 488 kts | 130° |
| 2026-04-24 23:20 | 12.04383 | -87.37331 | 32046 ft | 488 kts | 130° |
| 2026-04-24 23:20 | 12.02258 | -87.34630 | 32289 ft | 487 kts | 130° |
| 2026-04-24 23:20 | 12.00138 | -87.31933 | 32525 ft | 487 kts | 130° |
| 2026-04-24 23:20 | 11.98016 | -87.29236 | 32756 ft | 487 kts | 130° |
| 2026-04-24 23:21 | 11.95924 | -87.26579 | 32991 ft | 487 kts | 130° |
| 2026-04-24 23:21 | 11.93803 | -87.23888 | 33233 ft | 486 kts | 130° |
| 2026-04-24 23:21 | 11.91684 | -87.21201 | 33481 ft | 486 kts | 130° |
| 2026-04-24 23:21 | 11.89569 | -87.18515 | 33727 ft | 485 kts | 130° |
| 2026-04-24 23:22 | 11.87452 | -87.15829 | 33961 ft | 485 kts | 130° |
| 2026-04-24 23:22 | 11.85341 | -87.13150 | 34177 ft | 484 kts | 130° |
| 2026-04-24 23:22 | 11.83230 | -87.10471 | 34390 ft | 484 kts | 130° |
| 2026-04-24 23:22 | 11.81123 | -87.07796 | 34607 ft | 483 kts | 130° |
| 2026-04-24 23:23 | 11.79016 | -87.05121 | 34806 ft | 483 kts | 130° |
| 2026-04-24 23:23 | 11.74813 | -86.99788 | 34897 ft | 481 kts | 130° |
| 2026-04-24 23:24 | 11.70619 | -86.94480 | 34892 ft | 480 kts | 130° |
| 2026-04-24 23:24 | 11.66432 | -86.89182 | 34893 ft | 479 kts | 130° |
| 2026-04-24 23:25 | 11.62254 | -86.83894 | 34895 ft | 478 kts | 130° |
| 2026-04-24 23:25 | 11.58083 | -86.78623 | 34896 ft | 477 kts | 130° |
| 2026-04-24 23:26 | 11.53908 | -86.73347 | 34894 ft | 477 kts | 130° |
| 2026-04-24 23:26 | 11.49736 | -86.68077 | 34894 ft | 477 kts | 130° |
| 2026-04-24 23:27 | 11.45567 | -86.62810 | 34898 ft | 477 kts | 130° |
| 2026-04-24 23:27 | 11.41395 | -86.57538 | 34892 ft | 477 kts | 130° |
| 2026-04-24 23:28 | 11.37223 | -86.52281 | 34895 ft | 477 kts | 131° |
| 2026-04-24 23:28 | 11.33052 | -86.47027 | 34893 ft | 477 kts | 130° |
| 2026-04-24 23:29 | 11.28883 | -86.41771 | 34892 ft | 476 kts | 130° |
| 2026-04-24 23:29 | 11.24745 | -86.36558 | 34904 ft | 476 kts | 130° |
| 2026-04-24 23:30 | 11.20585 | -86.31323 | 34911 ft | 475 kts | 130° |
| 2026-04-24 23:30 | 11.16419 | -86.26098 | 34907 ft | 475 kts | 130° |
| 2026-04-24 23:31 | 11.12266 | -86.20875 | 34907 ft | 474 kts | 130° |
| 2026-04-24 23:31 | 11.08114 | -86.15657 | 34909 ft | 474 kts | 130° |
| 2026-04-24 23:32 | 11.03969 | -86.10443 | 34907 ft | 473 kts | 130° |
| 2026-04-24 23:32 | 10.99828 | -86.05234 | 34909 ft | 473 kts | 131° |
| 2026-04-24 23:33 | 10.95679 | -86.00038 | 34922 ft | 473 kts | 131° |
| 2026-04-24 23:33 | 10.91536 | -85.94843 | 34911 ft | 473 kts | 131° |
| 2026-04-24 23:34 | 10.87392 | -85.89650 | 34914 ft | 473 kts | 130° |
| 2026-04-24 23:34 | 10.83249 | -85.84458 | 34920 ft | 472 kts | 131° |
| 2026-04-24 23:35 | 10.79105 | -85.79266 | 34920 ft | 472 kts | 131° |
| 2026-04-24 23:35 | 10.74964 | -85.74077 | 34920 ft | 472 kts | 131° |
| 2026-04-24 23:36 | 10.70820 | -85.68892 | 34917 ft | 472 kts | 131° |
| 2026-04-24 23:36 | 10.66677 | -85.63708 | 34909 ft | 473 kts | 131° |
| 2026-04-24 23:37 | 10.62515 | -85.58508 | 34891 ft | 475 kts | 131° |
| 2026-04-24 23:37 | 10.57247 | -85.49961 | 34889 ft | 480 kts | 116° |
| 2026-04-24 23:38 | 10.54415 | -85.43793 | 34897 ft | 482 kts | 116° |
| 2026-04-24 23:38 | 10.51565 | -85.37634 | 34903 ft | 482 kts | 116° |
| 2026-04-24 23:39 | 10.48703 | -85.31464 | 34910 ft | 482 kts | 116° |
| 2026-04-24 23:39 | 10.45851 | -85.25297 | 34914 ft | 482 kts | 116° |
| 2026-04-24 23:40 | 10.43023 | -85.19176 | 34922 ft | 482 kts | 116° |
| 2026-04-24 23:40 | 10.40165 | -85.13018 | 34924 ft | 482 kts | 116° |
| 2026-04-24 23:41 | 10.37303 | -85.06855 | 34931 ft | 482 kts | 116° |
| 2026-04-24 23:41 | 10.34443 | -85.00696 | 34927 ft | 482 kts | 116° |
| 2026-04-24 23:42 | 10.31581 | -84.94537 | 34934 ft | 482 kts | 116° |
| 2026-04-24 23:42 | 10.28711 | -84.88380 | 34935 ft | 482 kts | 116° |
| 2026-04-24 23:43 | 10.25841 | -84.82218 | 34935 ft | 483 kts | 116° |
| 2026-04-24 23:43 | 10.22977 | -84.76054 | 34952 ft | 483 kts | 116° |
| 2026-04-24 23:44 | 10.20110 | -84.69897 | 34956 ft | 483 kts | 116° |
| 2026-04-24 23:44 | 10.17233 | -84.63741 | 34963 ft | 482 kts | 116° |
| 2026-04-24 23:45 | 10.14343 | -84.57601 | 34972 ft | 482 kts | 116° |
| 2026-04-24 23:45 | 10.11458 | -84.51474 | 34983 ft | 481 kts | 116° |
| 2026-04-24 23:46 | 10.08578 | -84.45344 | 34990 ft | 480 kts | 116° |
| 2026-04-24 23:46 | 10.05706 | -84.39226 | 34996 ft | 480 kts | 116° |
| 2026-04-24 23:47 | 10.02853 | -84.33147 | 35074 ft | 480 kts | 116° |
| 2026-04-24 23:47 | 9.99978 | -84.27035 | 35084 ft | 479 kts | 117° |
| 2026-04-24 23:48 | 9.97415 | -84.20818 | 35098 ft | 477 kts | 110° |
| 2026-04-24 23:48 | 9.95268 | -84.14460 | 35117 ft | 476 kts | 110° |
| 2026-04-24 23:49 | 9.93106 | -84.08077 | 35115 ft | 475 kts | 110° |
| 2026-04-24 23:49 | 9.90977 | -84.01794 | 35104 ft | 474 kts | 110° |
| 2026-04-24 23:50 | 9.88825 | -83.95484 | 35087 ft | 473 kts | 110° |
| 2026-04-24 23:50 | 9.86681 | -83.89165 | 35063 ft | 473 kts | 110° |
| 2026-04-24 23:51 | 9.84546 | -83.82854 | 35041 ft | 473 kts | 110° |
| 2026-04-24 23:51 | 9.82393 | -83.76539 | 35032 ft | 473 kts | 110° |
| 2026-04-24 23:52 | 9.80308 | -83.70213 | 35010 ft | 473 kts | 109° |
| 2026-04-24 23:52 | 9.78342 | -83.63837 | 35014 ft | 474 kts | 108° |
| 2026-04-24 23:53 | 9.76386 | -83.57464 | 35031 ft | 473 kts | 108° |
| 2026-04-24 23:53 | 9.74398 | -83.51110 | 35033 ft | 473 kts | 109° |
| 2026-04-24 23:54 | 9.72389 | -83.44754 | 34997 ft | 473 kts | 109° |
| 2026-04-24 23:54 | 9.70379 | -83.38399 | 34992 ft | 474 kts | 109° |
| 2026-04-24 23:55 | 9.68387 | -83.32076 | 34992 ft | 474 kts | 109° |
| 2026-04-24 23:55 | 9.66381 | -83.25711 | 34963 ft | 474 kts | 109° |
| 2026-04-24 23:56 | 9.64375 | -83.19346 | 34973 ft | 474 kts | 109° |
| 2026-04-24 23:56 | 9.62364 | -83.12981 | 34936 ft | 474 kts | 109° |
| 2026-04-24 23:57 | 9.60345 | -83.06613 | 34952 ft | 475 kts | 109° |
| 2026-04-24 23:57 | 9.58323 | -83.00236 | 34926 ft | 475 kts | 109° |
| 2026-04-24 23:58 | 9.56311 | -82.93855 | 34924 ft | 476 kts | 109° |
| 2026-04-24 23:58 | 9.54216 | -82.87500 | 34928 ft | 475 kts | 115° |
| 2026-04-24 23:59 | 9.51074 | -82.81646 | 34918 ft | 473 kts | 122° |
| 2026-04-24 23:59 | 9.47779 | -82.75878 | 34921 ft | 473 kts | 121° |
| 2026-04-25 00:00 | 9.44493 | -82.70111 | 34936 ft | 472 kts | 121° |
| 2026-04-25 00:00 | 9.41210 | -82.64347 | 34937 ft | 472 kts | 121° |
| 2026-04-25 00:01 | 9.38476 | -82.59566 | 34938 ft | 472 kts | 122° |
| 2026-04-25 00:01 | 9.35191 | -82.53822 | 34930 ft | 471 kts | 122° |
| 2026-04-25 00:02 | 9.31909 | -82.48081 | 34930 ft | 471 kts | 122° |
| 2026-04-25 00:02 | 9.28629 | -82.42344 | 34934 ft | 471 kts | 122° |
| 2026-04-25 00:03 | 9.25350 | -82.36611 | 34928 ft | 470 kts | 121° |
| 2026-04-25 00:03 | 9.22069 | -82.30893 | 34932 ft | 469 kts | 121° |
| 2026-04-25 00:04 | 9.18796 | -82.25179 | 34931 ft | 469 kts | 121° |
| 2026-04-25 00:04 | 9.15521 | -82.19474 | 34930 ft | 469 kts | 121° |
| 2026-04-25 00:05 | 9.12253 | -82.13771 | 34939 ft | 468 kts | 121° |
| 2026-04-25 00:05 | 9.08984 | -82.08071 | 34930 ft | 468 kts | 121° |
| 2026-04-25 00:06 | 9.05717 | -82.02377 | 34927 ft | 468 kts | 121° |
| 2026-04-25 00:06 | 9.02440 | -81.96679 | 34925 ft | 468 kts | 121° |
| 2026-04-25 00:07 | 8.99174 | -81.90985 | 34941 ft | 468 kts | 121° |
| 2026-04-25 00:07 | 8.95900 | -81.85292 | 34936 ft | 468 kts | 121° |
| 2026-04-25 00:08 | 8.92625 | -81.79601 | 34930 ft | 468 kts | 121° |
| 2026-04-25 00:08 | 8.89370 | -81.73944 | 34930 ft | 468 kts | 121° |
| 2026-04-25 00:09 | 8.86088 | -81.68253 | 34930 ft | 468 kts | 121° |
| 2026-04-25 00:09 | 8.82806 | -81.62564 | 34954 ft | 468 kts | 121° |
| 2026-04-25 00:10 | 8.79538 | -81.56875 | 34956 ft | 468 kts | 121° |
| 2026-04-25 00:10 | 8.76266 | -81.51193 | 34959 ft | 467 kts | 121° |
| 2026-04-25 00:11 | 8.72993 | -81.45517 | 34951 ft | 467 kts | 121° |
| 2026-04-25 00:11 | 8.69720 | -81.39848 | 34948 ft | 467 kts | 121° |
| 2026-04-25 00:12 | 8.66447 | -81.34176 | 34947 ft | 467 kts | 121° |
| 2026-04-25 00:12 | 8.63180 | -81.28505 | 34944 ft | 467 kts | 121° |
| 2026-04-25 00:13 | 8.59928 | -81.22835 | 34945 ft | 464 kts | 121° |
| 2026-04-25 00:13 | 8.56688 | -81.17215 | 34942 ft | 463 kts | 122° |
| 2026-04-25 00:14 | 8.53423 | -81.11617 | 34943 ft | 462 kts | 122° |
| 2026-04-25 00:14 | 8.50171 | -81.06014 | 34941 ft | 462 kts | 121° |
| 2026-04-25 00:15 | 8.46930 | -81.00404 | 34939 ft | 462 kts | 121° |
| 2026-04-25 00:15 | 8.43686 | -80.94795 | 34939 ft | 462 kts | 121° |
| 2026-04-25 00:16 | 8.40447 | -80.89187 | 34935 ft | 462 kts | 121° |
| 2026-04-25 00:16 | 8.37202 | -80.83591 | 34929 ft | 461 kts | 122° |
| 2026-04-25 00:17 | 8.33958 | -80.78004 | 34935 ft | 461 kts | 122° |
| 2026-04-25 00:17 | 8.30717 | -80.72414 | 34928 ft | 461 kts | 122° |
| 2026-04-25 00:18 | 8.27484 | -80.66832 | 34926 ft | 460 kts | 121° |
| 2026-04-25 00:18 | 8.24252 | -80.61255 | 34926 ft | 460 kts | 122° |
| 2026-04-25 00:19 | 8.21012 | -80.55684 | 34916 ft | 460 kts | 122° |
| 2026-04-25 00:19 | 8.17780 | -80.50116 | 34916 ft | 460 kts | 122° |
| 2026-04-25 00:20 | 8.14553 | -80.44551 | 34913 ft | 459 kts | 122° |
| 2026-04-25 00:20 | 8.11321 | -80.38989 | 34911 ft | 459 kts | 122° |
| 2026-04-25 00:21 | 8.08087 | -80.33432 | 34915 ft | 459 kts | 122° |
| 2026-04-25 00:21 | 8.04852 | -80.27882 | 34914 ft | 459 kts | 122° |
| 2026-04-25 00:22 | 8.01644 | -80.22366 | 34907 ft | 459 kts | 122° |
| 2026-04-25 00:22 | 7.98412 | -80.16807 | 34910 ft | 459 kts | 122° |
| 2026-04-25 00:23 | 7.95184 | -80.11257 | 34910 ft | 458 kts | 122° |
| 2026-04-25 00:23 | 7.91954 | -80.05714 | 34917 ft | 458 kts | 122° |
| 2026-04-25 00:24 | 7.88723 | -80.00173 | 34908 ft | 458 kts | 122° |
| 2026-04-25 00:24 | 7.85491 | -79.94634 | 34911 ft | 458 kts | 122° |
| 2026-04-25 00:25 | 7.82262 | -79.89091 | 34909 ft | 458 kts | 122° |
| 2026-04-25 00:25 | 7.79032 | -79.83553 | 34908 ft | 458 kts | 122° |
| 2026-04-25 00:26 | 7.75797 | -79.78015 | 34907 ft | 458 kts | 122° |
| 2026-04-25 00:26 | 7.72566 | -79.72479 | 34912 ft | 458 kts | 122° |
| 2026-04-25 00:27 | 7.69328 | -79.66953 | 34915 ft | 457 kts | 122° |
| 2026-04-25 00:27 | 7.66099 | -79.61429 | 34915 ft | 457 kts | 122° |
| 2026-04-25 00:28 | 7.62880 | -79.55900 | 34917 ft | 457 kts | 122° |
| 2026-04-25 00:28 | 7.59644 | -79.50367 | 34918 ft | 461 kts | 122° |
| 2026-04-25 00:29 | 7.56378 | -79.44797 | 34918 ft | 468 kts | 122° |
| 2026-04-25 00:29 | 7.53068 | -79.39137 | 34917 ft | 468 kts | 122° |
| 2026-04-25 00:30 | 7.49779 | -79.33490 | 34917 ft | 467 kts | 122° |
| 2026-04-25 00:30 | 7.46478 | -79.27857 | 34920 ft | 467 kts | 122° |
| 2026-04-25 00:31 | 7.43179 | -79.22229 | 34923 ft | 466 kts | 122° |
| 2026-04-25 00:31 | 7.39887 | -79.16604 | 34926 ft | 466 kts | 122° |
| 2026-04-25 00:32 | 7.36595 | -79.10987 | 34931 ft | 465 kts | 122° |
| 2026-04-25 00:32 | 7.33309 | -79.05376 | 34929 ft | 465 kts | 122° |
| 2026-04-25 00:33 | 7.30021 | -78.99776 | 34931 ft | 464 kts | 122° |
| 2026-04-25 00:33 | 7.26732 | -78.94180 | 34930 ft | 464 kts | 122° |
| 2026-04-25 00:34 | 7.23455 | -78.88584 | 34929 ft | 463 kts | 122° |
| 2026-04-25 00:34 | 7.20175 | -78.82999 | 34927 ft | 463 kts | 122° |
| 2026-04-25 00:35 | 7.16890 | -78.77415 | 34925 ft | 463 kts | 122° |
| 2026-04-25 00:35 | 7.13607 | -78.71839 | 34924 ft | 463 kts | 122° |
| 2026-04-25 00:36 | 7.10342 | -78.66293 | 34924 ft | 463 kts | 122° |
| 2026-04-25 00:36 | 7.07068 | -78.60710 | 34926 ft | 462 kts | 122° |
| 2026-04-25 00:37 | 7.03795 | -78.55139 | 34926 ft | 462 kts | 122° |
| 2026-04-25 00:37 | 7.00519 | -78.49578 | 34925 ft | 462 kts | 122° |
| 2026-04-25 00:38 | 6.97248 | -78.44011 | 34924 ft | 462 kts | 122° |
| 2026-04-25 00:38 | 6.93980 | -78.38452 | 34923 ft | 461 kts | 122° |
| 2026-04-25 00:39 | 6.90709 | -78.32898 | 34924 ft | 461 kts | 122° |
| 2026-04-25 00:39 | 6.87430 | -78.27346 | 34925 ft | 461 kts | 122° |
| 2026-04-25 00:40 | 6.84061 | -78.21851 | 34922 ft | 461 kts | 123° |
| 2026-04-25 00:40 | 6.80631 | -78.16402 | 34920 ft | 461 kts | 124° |
| 2026-04-25 00:41 | 6.77207 | -78.10940 | 34922 ft | 461 kts | 123° |
| 2026-04-25 00:41 | 6.73811 | -78.05469 | 34922 ft | 461 kts | 123° |
| 2026-04-25 00:42 | 6.70423 | -77.99987 | 34921 ft | 461 kts | 123° |
| 2026-04-25 00:42 | 6.67030 | -77.94513 | 34928 ft | 461 kts | 123° |
| 2026-04-25 00:43 | 6.63629 | -77.89050 | 34930 ft | 460 kts | 123° |
| 2026-04-25 00:43 | 6.60230 | -77.83594 | 34930 ft | 460 kts | 123° |
| 2026-04-25 00:44 | 6.56838 | -77.78135 | 34945 ft | 460 kts | 123° |
| 2026-04-25 00:44 | 6.53467 | -77.72704 | 34945 ft | 460 kts | 123° |
| 2026-04-25 00:45 | 6.50629 | -77.68134 | 34942 ft | 460 kts | 123° |
| 2026-04-25 00:45 | 6.46686 | -77.61797 | 34960 ft | 460 kts | 123° |
| 2026-04-25 00:46 | 6.43296 | -77.56346 | 34957 ft | 459 kts | 123° |
| 2026-04-25 00:47 | 6.38759 | -77.49066 | 34967 ft | 459 kts | 123° |
| 2026-04-25 00:47 | 6.35364 | -77.43633 | 34972 ft | 459 kts | 123° |
| 2026-04-25 00:48 | 6.32042 | -77.38313 | 34898 ft | 448 kts | 123° |
| 2026-04-25 00:48 | 6.28741 | -77.33027 | 34896 ft | 446 kts | 123° |
| 2026-04-25 00:49 | 6.25446 | -77.27754 | 34905 ft | 445 kts | 123° |
| 2026-04-25 00:49 | 6.22162 | -77.22478 | 34922 ft | 445 kts | 123° |
| 2026-04-25 00:50 | 6.18879 | -77.17208 | 34949 ft | 444 kts | 123° |
| 2026-04-25 00:50 | 6.15600 | -77.11954 | 34967 ft | 444 kts | 123° |
| 2026-04-25 00:51 | 6.12319 | -77.06701 | 34997 ft | 444 kts | 123° |
| 2026-04-25 00:51 | 6.09038 | -77.01448 | 35005 ft | 444 kts | 123° |
| 2026-04-25 00:52 | 6.05754 | -76.96194 | 34998 ft | 444 kts | 123° |
| 2026-04-25 00:52 | 6.02473 | -76.90944 | 35005 ft | 443 kts | 123° |
| 2026-04-25 00:53 | 5.99199 | -76.85692 | 35001 ft | 443 kts | 123° |
| 2026-04-25 00:53 | 5.95919 | -76.80450 | 34994 ft | 442 kts | 123° |
| 2026-04-25 00:54 | 5.92645 | -76.75223 | 34969 ft | 442 kts | 123° |
| 2026-04-25 00:54 | 5.89379 | -76.69998 | 34945 ft | 442 kts | 123° |
| 2026-04-25 00:55 | 5.86111 | -76.64772 | 34927 ft | 441 kts | 123° |
| 2026-04-25 00:55 | 5.82845 | -76.59552 | 34915 ft | 441 kts | 123° |
| 2026-04-25 00:56 | 5.79574 | -76.54333 | 34912 ft | 441 kts | 123° |
| 2026-04-25 00:56 | 5.76306 | -76.49115 | 34925 ft | 441 kts | 123° |
| 2026-04-25 00:57 | 5.73039 | -76.43903 | 34958 ft | 441 kts | 123° |
| 2026-04-25 00:57 | 5.69801 | -76.38735 | 34983 ft | 440 kts | 123° |
| 2026-04-25 00:58 | 5.66548 | -76.33532 | 35053 ft | 440 kts | 123° |
| 2026-04-25 00:58 | 5.63290 | -76.28331 | 35088 ft | 439 kts | 123° |
| 2026-04-25 00:59 | 5.60034 | -76.23140 | 35060 ft | 439 kts | 123° |
| 2026-04-25 00:59 | 5.56777 | -76.17945 | 35104 ft | 439 kts | 123° |
| 2026-04-25 01:00 | 5.53518 | -76.12758 | 35104 ft | 439 kts | 123° |
| 2026-04-25 01:00 | 5.50271 | -76.07581 | 35116 ft | 438 kts | 122° |
| 2026-04-25 01:01 | 5.47026 | -76.02410 | 35144 ft | 437 kts | 122° |
| 2026-04-25 01:01 | 5.43784 | -75.97244 | 35133 ft | 437 kts | 122° |
| 2026-04-25 01:02 | 5.40547 | -75.92092 | 35138 ft | 436 kts | 123° |
| 2026-04-25 01:02 | 5.37335 | -75.86977 | 35133 ft | 436 kts | 123° |
| 2026-04-25 01:03 | 5.34102 | -75.81828 | 35129 ft | 436 kts | 123° |
| 2026-04-25 01:03 | 5.30864 | -75.76684 | 35126 ft | 436 kts | 123° |
| 2026-04-25 01:04 | 5.27633 | -75.71539 | 35138 ft | 436 kts | 123° |
| 2026-04-25 01:04 | 5.24406 | -75.66395 | 35185 ft | 435 kts | 122° |
| 2026-04-25 01:05 | 5.21181 | -75.61256 | 35251 ft | 435 kts | 123° |
| 2026-04-25 01:05 | 5.17943 | -75.56120 | 35283 ft | 435 kts | 123° |
| 2026-04-25 01:06 | 5.14708 | -75.50985 | 35147 ft | 435 kts | 122° |
| 2026-04-25 01:06 | 5.13005 | -75.48459 | 34105 ft | 441 kts | 128° |
| 2026-04-25 01:06 | 5.11083 | -75.46029 | 32903 ft | 448 kts | 128° |
| 2026-04-25 01:06 | 5.09126 | -75.43562 | 31685 ft | 455 kts | 128° |
| 2026-04-25 01:07 | 5.07141 | -75.41060 | 30538 ft | 461 kts | 128° |
| 2026-04-25 01:07 | 5.05136 | -75.38535 | 29261 ft | 466 kts | 128° |
| 2026-04-25 01:07 | 5.03110 | -75.35979 | 28002 ft | 470 kts | 128° |
| 2026-04-25 01:07 | 5.01066 | -75.33400 | 26793 ft | 474 kts | 128° |
| 2026-04-25 01:08 | 4.99015 | -75.30818 | 25932 ft | 472 kts | 128° |
| 2026-04-25 01:08 | 4.96971 | -75.28244 | 25529 ft | 473 kts | 128° |
| 2026-04-25 01:08 | 4.94917 | -75.25654 | 25319 ft | 475 kts | 128° |
| 2026-04-25 01:08 | 4.92858 | -75.23060 | 25259 ft | 475 kts | 128° |
| 2026-04-25 01:09 | 4.90810 | -75.20479 | 25201 ft | 467 kts | 128° |
| 2026-04-25 01:09 | 4.88846 | -75.18004 | 25101 ft | 438 kts | 128° |
| 2026-04-25 01:09 | 4.87003 | -75.15679 | 24704 ft | 417 kts | 128° |
| 2026-04-25 01:09 | 4.85248 | -75.13406 | 23970 ft | 408 kts | 123° |
| 2026-04-25 01:10 | 4.83902 | -75.10933 | 23104 ft | 402 kts | 111° |
| 2026-04-25 01:10 | 4.83081 | -75.08279 | 22212 ft | 396 kts | 101° |
| 2026-04-25 01:10 | 4.82512 | -75.05589 | 21321 ft | 392 kts | 101° |
| 2026-04-25 01:10 | 4.81948 | -75.02923 | 20463 ft | 389 kts | 101° |
| 2026-04-25 01:11 | 4.81387 | -75.00276 | 19700 ft | 385 kts | 101° |
| 2026-04-25 01:11 | 4.80834 | -74.97674 | 19211 ft | 379 kts | 102° |
| 2026-04-25 01:11 | 4.80288 | -74.95097 | 18737 ft | 377 kts | 102° |
| 2026-04-25 01:11 | 4.79745 | -74.92537 | 18217 ft | 375 kts | 101° |
| 2026-04-25 01:12 | 4.79207 | -74.89990 | 17734 ft | 373 kts | 102° |
| 2026-04-25 01:12 | 4.78708 | -74.87384 | 17254 ft | 380 kts | 94° |
| 2026-04-25 01:12 | 4.78966 | -74.84831 | 16872 ft | 359 kts | 69° |
| 2026-04-25 01:12 | 4.80106 | -74.82717 | 16783 ft | 338 kts | 49° |
| 2026-04-25 01:13 | 4.81828 | -74.81157 | 16801 ft | 332 kts | 30° |
| 2026-04-25 01:13 | 4.83923 | -74.80250 | 16805 ft | 328 kts | 11° |
| 2026-04-25 01:13 | 4.86184 | -74.80081 | 16837 ft | 325 kts | 352° |
| 2026-04-25 01:13 | 4.88433 | -74.80338 | 16653 ft | 326 kts | 359° |
| 2026-04-25 01:14 | 4.90593 | -74.79831 | 16416 ft | 330 kts | 25° |
| 2026-04-25 01:14 | 4.92665 | -74.78623 | 16125 ft | 353 kts | 33° |
| 2026-04-25 01:14 | 4.94407 | -74.76929 | 15858 ft | 348 kts | 54° |
| 2026-04-25 01:14 | 4.95421 | -74.74722 | 15618 ft | 343 kts | 76° |
| 2026-04-25 01:15 | 4.95625 | -74.72372 | 15400 ft | 337 kts | 95° |
| 2026-04-25 01:15 | 4.95325 | -74.70109 | 15172 ft | 324 kts | 98° |
| 2026-04-25 01:15 | 4.95010 | -74.67894 | 14951 ft | 309 kts | 98° |
| 2026-04-25 01:15 | 4.94714 | -74.65810 | 14737 ft | 304 kts | 98° |
| 2026-04-25 01:16 | 4.94412 | -74.63689 | 14534 ft | 303 kts | 98° |
| 2026-04-25 01:16 | 4.94121 | -74.61633 | 14311 ft | 301 kts | 98° |
| 2026-04-25 01:16 | 4.93827 | -74.59561 | 14086 ft | 299 kts | 98° |
| 2026-04-25 01:16 | 4.93535 | -74.57497 | 13845 ft | 298 kts | 98° |
| 2026-04-25 01:17 | 4.93245 | -74.55441 | 13589 ft | 297 kts | 98° |
| 2026-04-25 01:17 | 4.93049 | -74.54055 | 13421 ft | 296 kts | 98° |
| 2026-04-25 01:17 | 4.92668 | -74.51359 | 13114 ft | 293 kts | 98° |
| 2026-04-25 01:17 | 4.92384 | -74.49341 | 13036 ft | 292 kts | 98° |
| 2026-04-25 01:18 | 4.92098 | -74.47320 | 12908 ft | 293 kts | 97° |
| 2026-04-25 01:18 | 4.91813 | -74.45307 | 12891 ft | 291 kts | 98° |
| 2026-04-25 01:18 | 4.91523 | -74.43298 | 12897 ft | 291 kts | 100° |
| 2026-04-25 01:18 | 4.90920 | -74.41367 | 12904 ft | 291 kts | 116° |
| 2026-04-25 01:19 | 4.89849 | -74.39669 | 12909 ft | 281 kts | 128° |
| 2026-04-25 01:19 | 4.88707 | -74.38174 | 12920 ft | 260 kts | 128° |
| 2026-04-25 01:19 | 4.87645 | -74.36774 | 12932 ft | 244 kts | 128° |
| 2026-04-25 01:19 | 4.86650 | -74.35454 | 12989 ft | 234 kts | 127° |
| 2026-04-25 01:20 | 4.85678 | -74.34167 | 12801 ft | 229 kts | 127° |
| 2026-04-25 01:20 | 4.84720 | -74.32899 | 12536 ft | 227 kts | 127° |
| 2026-04-25 01:20 | 4.83774 | -74.31649 | 12252 ft | 223 kts | 127° |
| 2026-04-25 01:20 | 4.82846 | -74.30422 | 11977 ft | 218 kts | 126° |
| 2026-04-25 01:21 | 4.81938 | -74.29221 | 11709 ft | 214 kts | 126° |
| 2026-04-25 01:21 | 4.81043 | -74.28038 | 11445 ft | 211 kts | 126° |
| 2026-04-25 01:21 | 4.80162 | -74.26872 | 11181 ft | 209 kts | 126° |
| 2026-04-25 01:21 | 4.79291 | -74.25720 | 10935 ft | 206 kts | 126° |
| 2026-04-25 01:22 | 4.78436 | -74.24590 | 10680 ft | 198 kts | 126° |
| 2026-04-25 01:22 | 4.77643 | -74.23543 | 10461 ft | 181 kts | 126° |
| 2026-04-25 01:22 | 4.76904 | -74.22566 | 10251 ft | 172 kts | 126° |
| 2026-04-25 01:22 | 4.76193 | -74.21625 | 10032 ft | 167 kts | 127° |
| 2026-04-25 01:23 | 4.75496 | -74.20704 | 9814 ft | 165 kts | 127° |
| 2026-04-25 01:23 | 4.74806 | -74.19791 | 9578 ft | 164 kts | 127° |
| 2026-04-25 01:23 | 4.74118 | -74.18882 | 9350 ft | 164 kts | 127° |
| 2026-04-25 01:23 | 4.73428 | -74.17970 | 9107 ft | 165 kts | 127° |
| 2026-04-25 01:24 | 4.72724 | -74.17045 | 8886 ft | 168 kts | 126° |
| 2026-04-25 01:24 | 4.72022 | -74.16110 | 8669 ft | 168 kts | 127° |
| 2026-04-25 01:24 | 4.71320 | -74.15182 | 8430 ft | 166 kts | 127° |
| 2026-04-25 01:24 | 4.70673 | -74.14325 | 8372 ft | 132 kts | 127° |
| 2026-04-25 01:25 | 4.70220 | -74.13731 | 8369 ft | 83 kts | 127° |
| 2026-04-25 01:25 | 4.69972 | -74.13401 | 8371 ft | 30 kts | 127° |
| 2026-04-25 01:25 | 4.69919 | -74.13410 | 8372 ft | 10 kts | 262° |
| 2026-04-25 01:25 | 4.69910 | -74.13480 | 8373 ft | 10 kts | 262° |
| 2026-04-25 01:26 | 4.69904 | -74.13521 | 8372 ft | 0 kts | 262° |
| 2026-04-25 01:26 | 4.69904 | -74.13522 | 8372 ft | 1 kts | 262° |
| 2026-04-25 01:27 | 4.69900 | -74.13550 | 8372 ft | 7 kts | 262° |
| 2026-04-25 01:27 | 4.69897 | -74.13570 | 8373 ft | 0 kts | 261° |
| 2026-04-25 01:28 | 4.69897 | -74.13572 | 8373 ft | 0 kts | 261° |
| 2026-04-25 01:28 | 4.69893 | -74.13594 | 8372 ft | 9 kts | 261° |
| 2026-04-25 01:29 | 4.69884 | -74.13679 | 8373 ft | 15 kts | 257° |
| 2026-04-25 01:29 | 4.69844 | -74.13762 | 8373 ft | 11 kts | 241° |
| 2026-04-25 01:29 | 4.69847 | -74.13800 | 8373 ft | 5 kts | 296° |
| 2026-04-25 01:29 | 4.69874 | -74.13837 | 8373 ft | 8 kts | 310° |
| 2026-04-25 01:30 | 4.69894 | -74.13875 | 8373 ft | 6 kts | 266° |
| 2026-04-25 01:30 | 4.69868 | -74.13904 | 8373 ft | 5 kts | 216° |
| 2026-04-25 01:30 | 4.69841 | -74.13925 | 8370 ft | 4 kts | 217° |
| 2026-04-25 01:30 | 4.69839 | -74.13926 | 8373 ft | 0 kts | 217° |